KMGC/MGC METAR and TAF weather

Enter ICAO airport designator
Station Type Date Time Source
KMGC METAR 2022/08/12 15:55 UTC NOAA

KMGC 121555Z AUTO 00000KT 10SM CLR 22/12 A3029 RMK AO2


Station Type Date Time Source
KMGC Decoded METAR 2022/08/12 15:55 UTC NOAA

Station name not available
Aug 12, 2022 - 11:55 AM EDT / 2022.08.12 1555 UTC
Wind: Calm:0
Visibility: 10 mile(s):0
Sky conditions: clear
Temperature: 71 F (22 C)
Dew Point: 53 F (12 C)
Relative Humidity: 53%
Pressure (altimeter): 30.29 in. Hg (1025 hPa)
ob: KMGC 121555Z AUTO 00000KT 10SM CLR 22/12 A3029 RMK AO2
cycle: 16

Station Type Date Time Source
KMGC TAF UTC NOAA

Error!

Example: see airport list